Voidomatis — A8FX2 — position and weather

sailwx.info

Track history (hours):
 
Tides and Currents Weather Stations Pressure Air Temp Water Temp Dewpoint Dewpoint Depression Visibility Wind Speed Wind Dir Waves Ship Positions

Voidomatis

Last reported at 2015-Jul-07 07:33 UTC. Time now 2015-Jul-07 17:36 UTC.
Position N 35°51' W 007°40'.

Length 214 m; draft 7.9 m.

Type: Tanker. MMSI: 636012508.

Date/timePositionNaut miles runAvg speedWind from/ knotsBaromVisibWave heightAir tempDewpointWater temp
2015-Jul-07 07:33N 35°51' W 007°40'1514.8
2015-Jul-07 06:33N 35°50' W 007°59'1915.0
2015-Jul-07 05:18N 35°48' W 008°22'1114.9
2015-Jul-07 04:33N 35°48' W 008°35'1515.1
2015-Jul-07 03:33N 35°48' W 008°54'1514.9
2015-Jul-07 02:33N 35°47' W 009°13'1514.5
2015-Jul-07 01:33N 35°47' W 009°30'1414.4
2015-Jul-07 00:33N 35°46' W 009°48'1514.6
2015-Jul-06 23:33N 35°45' W 010°06'1414.3
2015-Jul-06 22:33N 35°44' W 010°24'1414.3
2015-Jul-06 21:33N 35°43' W 010°41'1414.3
2015-Jul-06 20:33N 35°41' W 010°59'1414.5
2015-Jul-06 19:33N 35°40' W 011°16'1414.3
2015-Jul-06 18:33N 35°39' W 011°34'1414.4
2015-Jul-06 17:33N 35°37' W 011°52'1414.3
2015-Jul-06 16:33N 35°36' W 012°09'1414.3
2015-Jul-06 15:33N 35°35' W 012°27'1414.1
2015-Jul-06 14:33N 35°31' W 012°44'1413.5
2015-Jul-06 13:32N 35°32' W 013°00'1514.7
2015-Jul-06 12:33N 35°31' W 013°18'1414.6
2015-Jul-06 11:33N 35°29' W 013°36'1414.4
2015-Jul-06 10:33N 35°28' W 013°53'1413.9
2015-Jul-06 09:33N 35°27' W 014°11'1414.1
2015-Jul-06 08:33N 35°26' W 014°28'1514.3
2015-Jul-06 07:32N 35°24' W 014°46'1514.1
2015-Jul-06 06:29N 35°23' W 015°04'1414.4
2015-Jul-06 05:33N 35°21' W 015°20'1514.6
2015-Jul-06 04:32N 35°19' W 015°38'1614.6
2015-Jul-06 03:27N 35°17' W 015°57'1314.7
2015-Jul-06 02:33N 35°15' W 016°13'1515.0
2015-Jul-06 01:34N 35°13' W 016°31'1515.0
2015-Jul-06 00:33N 35°11' W 016°50'1514.9
2015-Jul-05 23:33N 35°09' W 017°08'1514.7
2015-Jul-05 22:33N 35°06' W 017°25'1514.9
2015-Jul-05 21:33N 35°04' W 017°43'1514.8
2015-Jul-05 20:33N 35°02' W 018°01'2914.5
2015-Jul-05 18:32N 34°58' W 018°37'  
Track history (hours):
 
Tides and Currents Weather Stations Pressure Air Temp Water Temp Dewpoint Dewpoint Depression Visibility Wind Speed Wind Dir Waves Ship Positions

Voidomatis

Last reported at 2015-Jul-07 07:33 UTC. Time now 2015-Jul-07 17:36 UTC.
Position N 35°51' W 007°40'.

Length 214 m; draft 7.9 m.

Type: Tanker. MMSI: 636012508.

Date/timePositionNaut miles runAvg speedWind from/ knotsBaromVisibWave heightAir tempDewpointWater temp
2015-Jul-07 07:33N 35°51' W 007°40'1514.8
2015-Jul-07 06:33N 35°50' W 007°59'1915.0
2015-Jul-07 05:18N 35°48' W 008°22'1114.9
2015-Jul-07 04:33N 35°48' W 008°35'1515.1
2015-Jul-07 03:33N 35°48' W 008°54'1514.9
2015-Jul-07 02:33N 35°47' W 009°13'1514.5
2015-Jul-07 01:33N 35°47' W 009°30'1414.4
2015-Jul-07 00:33N 35°46' W 009°48'1514.6
2015-Jul-06 23:33N 35°45' W 010°06'1414.3
2015-Jul-06 22:33N 35°44' W 010°24'1414.3
2015-Jul-06 21:33N 35°43' W 010°41'1414.3
2015-Jul-06 20:33N 35°41' W 010°59'1414.5
2015-Jul-06 19:33N 35°40' W 011°16'1414.3
2015-Jul-06 18:33N 35°39' W 011°34'1414.4
2015-Jul-06 17:33N 35°37' W 011°52'1414.3
2015-Jul-06 16:33N 35°36' W 012°09'1414.3
2015-Jul-06 15:33N 35°35' W 012°27'1414.1
2015-Jul-06 14:33N 35°31' W 012°44'1413.5
2015-Jul-06 13:32N 35°32' W 013°00'1514.7
2015-Jul-06 12:33N 35°31' W 013°18'1414.6
2015-Jul-06 11:33N 35°29' W 013°36'1414.4
2015-Jul-06 10:33N 35°28' W 013°53'1413.9
2015-Jul-06 09:33N 35°27' W 014°11'1414.1
2015-Jul-06 08:33N 35°26' W 014°28'1514.3
2015-Jul-06 07:32N 35°24' W 014°46'1514.1
2015-Jul-06 06:29N 35°23' W 015°04'1414.4
2015-Jul-06 05:33N 35°21' W 015°20'1514.6
2015-Jul-06 04:32N 35°19' W 015°38'1614.6
2015-Jul-06 03:27N 35°17' W 015°57'1314.7
2015-Jul-06 02:33N 35°15' W 016°13'1515.0
2015-Jul-06 01:34N 35°13' W 016°31'1515.0
2015-Jul-06 00:33N 35°11' W 016°50'1514.9
2015-Jul-05 23:33N 35°09' W 017°08'1514.7
2015-Jul-05 22:33N 35°06' W 017°25'1514.9
2015-Jul-05 21:33N 35°04' W 017°43'1514.8
2015-Jul-05 20:33N 35°02' W 018°01'2914.5
2015-Jul-05 18:32N 34°58' W 018°37'  

Dump ship's entire track history